Time;durP1;ratioP1;P1;durP2;ratioP2;P2;SDS_P1;SDS_P2;PMS_P1;PMS_P2;Temp;Humidity;BMP_temperature;BMP_pressure;BME280_temperature;BME280_humidity;BME280_pressure;Samples;Min_cycle;Max_cycle;Signal;HPM_P1;HPM_P2
2021/06/22 00:01:45;;;;;;;5.37;1.63;;;;;;;;;;4982534;28;20182;-83
2021/06/22 00:04:49;;;;;;;5.67;1.50;;;;;;;;;;4971376;28;20170;-83
2021/06/22 00:07:55;;;;;;;3.40;1.30;;;;;;;;;;4993867;28;20198;-83
2021/06/22 00:11:00;;;;;;;2.73;1.43;;;;;;;;;;4993869;28;20693;-83
2021/06/22 00:14:04;;;;;;;2.53;1.40;;;;;;;;;;4993585;28;20202;-83
2021/06/22 00:17:08;;;;;;;4.30;1.60;;;;;;;;;;5018860;28;20192;-83
2021/06/22 00:20:13;;;;;;;3.10;1.50;;;;;;;;;;5032541;28;20228;-83
2021/06/22 00:23:17;;;;;;;2.97;1.60;;;;;;;;;;5032482;28;20205;-83
2021/06/22 00:26:21;;;;;;;3.23;1.50;;;;;;;;;;5010400;28;20189;-83
2021/06/22 00:29:26;;;;;;;2.33;1.40;;;;;;;;;;5021381;28;20180;-83
2021/06/22 00:32:31;;;;;;;3.60;1.77;;;;;;;;;;5010389;28;20177;-84
2021/06/22 00:35:35;;;;;;;3.67;1.43;;;;;;;;;;4971569;28;20641;-83
2021/06/22 00:38:39;;;;;;;4.00;2.10;;;;;;;;;;4971237;28;20183;-84
2021/06/22 00:41:43;;;;;;;3.70;1.77;;;;;;;;;;4993627;28;20202;-83
2021/06/22 00:44:53;;;;;;;4.20;2.00;;;;;;;;;;4998231;28;20193;-83
2021/06/22 00:48:00;;;;;;;4.73;1.60;;;;;;;;;;5007032;28;20218;-83
2021/06/22 00:51:06;;;;;;;5.20;1.63;;;;;;;;;;5009914;28;20216;-83
2021/06/22 00:54:11;;;;;;;4.73;1.70;;;;;;;;;;5027472;28;20644;-83
2021/06/22 00:57:19;;;;;;;5.20;1.70;;;;;;;;;;5001712;28;20649;-83
2021/06/22 01:00:25;;;;;;;5.70;1.70;;;;;;;;;;5001775;28;20209;-83
2021/06/22 01:03:29;;;;;;;5.63;1.70;;;;;;;;;;5012532;28;20201;-83
2021/06/22 01:06:37;;;;;;;2.43;1.50;;;;;;;;;;5013223;28;20181;-83
2021/06/22 01:09:45;;;;;;;4.43;1.90;;;;;;;;;;5013088;28;20218;-83
2021/06/22 01:12:50;;;;;;;2.40;1.70;;;;;;;;;;5013226;28;20174;-83
2021/06/22 01:15:56;;;;;;;4.80;1.70;;;;;;;;;;5013257;28;20643;-83
2021/06/22 01:19:05;;;;;;;5.97;1.60;;;;;;;;;;5011575;28;20202;-83
2021/06/22 01:22:32;;;;;;;4.10;1.50;;;;;;;;;;4985443;28;20182;-83
2021/06/22 01:25:39;;;;;;;1.90;1.63;;;;;;;;;;4984952;28;20174;-83
2021/06/22 01:28:43;;;;;;;3.47;1.90;;;;;;;;;;4996103;28;20194;-83
2021/06/22 01:31:55;;;;;;;4.83;1.97;;;;;;;;;;4984601;28;20202;-83
2021/06/22 01:35:01;;;;;;;6.03;1.57;;;;;;;;;;4996439;28;20178;-83
2021/06/22 01:38:08;;;;;;;4.87;2.00;;;;;;;;;;4996067;28;20182;-83
2021/06/22 01:41:17;;;;;;;3.63;1.73;;;;;;;;;;4996158;28;20218;-83
2021/06/22 01:44:26;;;;;;;2.63;1.80;;;;;;;;;;4996156;28;20202;-83
2021/06/22 01:47:30;;;;;;;5.07;2.33;;;;;;;;;;4984800;28;20182;-83
2021/06/22 01:50:35;;;;;;;3.80;1.73;;;;;;;;;;4985179;28;20217;-83
2021/06/22 01:53:39;;;;;;;2.77;1.63;;;;;;;;;;4985010;28;20198;-82
2021/06/22 01:56:50;;;;;;;7.77;2.73;;;;;;;;;;5015378;28;20193;-83
2021/06/22 01:59:59;;;;;;;5.67;1.93;;;;;;;;;;5015996;28;20213;-83
2021/06/22 02:03:27;;;;;;;4.63;2.10;;;;;;;;;;4995959;28;20210;-83
2021/06/22 02:06:31;;;;;;;4.53;2.00;;;;;;;;;;4984995;28;20186;-83
2021/06/22 02:09:54;;;;;;;2.70;1.70;;;;;;;;;;5010374;28;20220;-82
2021/06/22 02:13:05;;;;;;;4.37;1.83;;;;;;;;;;5018304;28;20194;-86
2021/06/22 02:16:11;;;;;;;1.83;1.30;;;;;;;;;;4992399;28;20174;-85
2021/06/22 02:19:15;;;;;;;6.10;2.37;;;;;;;;;;4972554;28;20182;-87
2021/06/22 02:22:20;;;;;;;3.70;1.70;;;;;;;;;;4984056;28;20666;-86
2021/06/22 02:25:28;;;;;;;2.10;1.60;;;;;;;;;;4975632;28;20181;-86
2021/06/22 02:28:33;;;;;;;4.73;1.80;;;;;;;;;;5025960;28;20190;-86
2021/06/22 02:31:42;;;;;;;2.97;1.50;;;;;;;;;;5014125;28;20213;-86
2021/06/22 02:34:47;;;;;;;3.33;1.80;;;;;;;;;;5012297;28;20174;-85
2021/06/22 02:37:52;;;;;;;5.47;1.77;;;;;;;;;;5012618;28;20645;-85
2021/06/22 02:40:57;;;;;;;2.17;1.67;;;;;;;;;;5003057;28;20217;-86
2021/06/22 02:44:08;;;;;;;2.67;1.80;;;;;;;;;;5003051;28;20677;-86
2021/06/22 02:47:19;;;;;;;2.30;1.60;;;;;;;;;;5014325;28;20521;-86
2021/06/22 02:50:24;;;;;;;3.40;1.77;;;;;;;;;;5002784;28;20213;-86
2021/06/22 02:53:30;;;;;;;2.63;1.33;;;;;;;;;;5022681;28;20177;-86
2021/06/22 02:56:37;;;;;;;6.40;1.83;;;;;;;;;;5022848;28;20512;-86
2021/06/22 02:59:43;;;;;;;1.77;1.47;;;;;;;;;;5033907;28;20217;-85
2021/06/22 03:02:49;;;;;;;3.70;1.73;;;;;;;;;;5022853;28;20181;-86
2021/06/22 03:05:55;;;;;;;2.83;1.50;;;;;;;;;;5011473;28;20588;-86
2021/06/22 03:09:08;;;;;;;2.70;1.37;;;;;;;;;;4984371;28;20210;-86
2021/06/22 03:12:26;;;;;;;3.50;1.50;;;;;;;;;;4994823;28;20186;-86
2021/06/22 03:15:49;;;;;;;5.23;2.10;;;;;;;;;;4983207;28;20179;-86
2021/06/22 03:18:54;;;;;;;4.17;1.60;;;;;;;;;;4993768;28;20202;-86
2021/06/22 03:22:00;;;;;;;4.20;1.87;;;;;;;;;;5021676;23;20588;-88
2021/06/22 03:25:09;;;;;;;2.43;1.80;;;;;;;;;;4996377;28;20209;-88
2021/06/22 03:28:14;;;;;;;5.43;1.77;;;;;;;;;;5021698;28;20671;-88
2021/06/22 03:31:57;;;;;;;2.13;1.67;;;;;;;;;;5031592;28;20216;-87
2021/06/22 03:35:04;;;;;;;6.00;1.67;;;;;;;;;;5032894;28;20168;-87
2021/06/22 03:38:08;;;;;;;6.80;2.00;;;;;;;;;;5021347;28;20547;-87
2021/06/22 03:41:13;;;;;;;5.10;2.00;;;;;;;;;;5033300;28;20627;-87
2021/06/22 03:44:17;;;;;;;6.37;2.00;;;;;;;;;;5032954;28;20213;-87
2021/06/22 03:47:39;;;;;;;7.60;2.17;;;;;;;;;;5012682;28;20177;-87
2021/06/22 03:50:43;;;;;;;4.00;1.63;;;;;;;;;;5021803;28;20620;-87
2021/06/22 03:53:48;;;;;;;3.27;1.57;;;;;;;;;;5021684;28;20181;-87
2021/06/22 03:56:52;;;;;;;4.53;1.70;;;;;;;;;;5021818;28;20181;-87
2021/06/22 04:00:03;;;;;;;4.30;1.90;;;;;;;;;;5021816;28;20185;-87
2021/06/22 04:03:15;;;;;;;2.60;1.60;;;;;;;;;;5021694;28;20216;-87
2021/06/22 04:06:26;;;;;;;4.37;2.00;;;;;;;;;;5021476;28;20177;-87
2021/06/22 04:09:38;;;;;;;5.93;1.90;;;;;;;;;;5032653;28;20177;-87
2021/06/22 04:12:42;;;;;;;3.93;1.90;;;;;;;;;;5032729;28;20212;-88
2021/06/22 04:15:46;;;;;;;4.73;1.90;;;;;;;;;;5010101;28;20181;-87
2021/06/22 04:18:51;;;;;;;2.67;1.93;;;;;;;;;;5032597;28;20200;-87
2021/06/22 04:22:01;;;;;;;4.47;1.83;;;;;;;;;;5020819;28;20224;-88
2021/06/22 04:25:18;;;;;;;3.97;1.80;;;;;;;;;;5012017;28;20209;-89
2021/06/22 04:28:23;;;;;;;2.90;2.20;;;;;;;;;;5009677;28;20218;-87
2021/06/22 04:31:27;;;;;;;4.47;2.47;;;;;;;;;;5009655;28;20216;-86
2021/06/22 04:34:32;;;;;;;5.03;2.37;;;;;;;;;;5009613;28;20189;-87
2021/06/22 04:37:36;;;;;;;4.20;2.37;;;;;;;;;;5021366;28;20189;-86
2021/06/22 04:40:40;;;;;;;6.13;2.60;;;;;;;;;;5032698;28;20203;-86
2021/06/22 04:43:44;;;;;;;5.70;1.73;;;;;;;;;;5032657;28;20640;-87
2021/06/22 04:46:48;;;;;;;6.33;2.50;;;;;;;;;;5022106;28;20181;-87
2021/06/22 04:49:52;;;;;;;4.97;1.93;;;;;;;;;;5013066;28;20177;-86
2021/06/22 04:52:56;;;;;;;5.10;2.30;;;;;;;;;;5024604;28;20220;-86
2021/06/22 04:56:01;;;;;;;3.90;2.13;;;;;;;;;;5024899;28;20200;-86
2021/06/22 04:59:05;;;;;;;4.60;2.20;;;;;;;;;;5024640;28;20192;-87
2021/06/22 05:02:09;;;;;;;4.10;2.40;;;;;;;;;;5016096;28;20220;-87
2021/06/22 05:05:15;;;;;;;6.93;2.17;;;;;;;;;;5016428;28;20209;-87
2021/06/22 05:08:19;;;;;;;2.83;2.17;;;;;;;;;;5004895;28;20185;-87
2021/06/22 05:11:23;;;;;;;3.67;2.50;;;;;;;;;;5004588;28;20217;-87
2021/06/22 05:14:27;;;;;;;3.73;2.10;;;;;;;;;;5015655;28;20174;-87
2021/06/22 05:17:32;;;;;;;3.20;2.20;;;;;;;;;;5015724;28;20194;-87
2021/06/22 05:20:36;;;;;;;5.37;2.13;;;;;;;;;;5027348;28;20182;-87
2021/06/22 05:23:40;;;;;;;3.50;2.20;;;;;;;;;;5030470;28;20204;-87
2021/06/22 05:26:44;;;;;;;5.70;2.40;;;;;;;;;;5024206;28;20177;-89
2021/06/22 05:29:48;;;;;;;4.07;2.87;;;;;;;;;;5023876;28;20662;-87
2021/06/22 05:32:53;;;;;;;4.27;2.37;;;;;;;;;;5035153;28;20216;-86
2021/06/22 05:35:57;;;;;;;4.20;3.00;;;;;;;;;;5024047;28;20176;-86
2021/06/22 05:39:01;;;;;;;6.53;2.60;;;;;;;;;;5012767;28;20185;-87
2021/06/22 05:42:06;;;;;;;3.37;2.27;;;;;;;;;;5046518;28;20217;-86
2021/06/22 05:45:11;;;;;;;5.47;2.90;;;;;;;;;;5035414;28;20682;-86
2021/06/22 05:48:15;;;;;;;4.63;2.33;;;;;;;;;;5035521;28;20181;-87
2021/06/22 05:51:19;;;;;;;9.17;2.73;;;;;;;;;;5023795;28;20694;-87
2021/06/22 05:54:23;;;;;;;8.63;2.93;;;;;;;;;;5014004;28;20169;-85
2021/06/22 05:57:27;;;;;;;7.17;3.30;;;;;;;;;;5013306;28;20197;-85
2021/06/22 06:00:33;;;;;;;6.27;2.93;;;;;;;;;;5024447;28;20201;-85
2021/06/22 06:03:37;;;;;;;6.73;3.30;;;;;;;;;;5036770;28;20173;-85
2021/06/22 06:06:41;;;;;;;4.00;3.07;;;;;;;;;;5013105;28;20181;-85
2021/06/22 06:09:46;;;;;;;6.40;3.10;;;;;;;;;;5013155;28;20176;-85
2021/06/22 06:12:51;;;;;;;4.30;2.87;;;;;;;;;;5012814;28;20213;-85
2021/06/22 06:15:55;;;;;;;7.57;2.93;;;;;;;;;;5035443;28;20193;-85
2021/06/22 06:18:59;;;;;;;5.03;3.27;;;;;;;;;;5013577;28;20180;-85
2021/06/22 06:22:03;;;;;;;4.83;2.93;;;;;;;;;;5012452;28;20236;-85
2021/06/22 06:25:09;;;;;;;8.40;2.90;;;;;;;;;;5035708;28;20224;-85
2021/06/22 06:28:19;;;;;;;2.80;2.60;;;;;;;;;;5035606;28;20177;-85
2021/06/22 06:31:23;;;;;;;6.60;3.13;;;;;;;;;;5012907;28;20221;-85
2021/06/22 06:34:27;;;;;;;5.47;2.63;;;;;;;;;;5012773;28;20196;-85
2021/06/22 06:37:32;;;;;;;4.13;3.00;;;;;;;;;;5024353;28;20185;-85
2021/06/22 06:40:36;;;;;;;6.73;3.20;;;;;;;;;;5035131;28;20189;-85
2021/06/22 06:43:40;;;;;;;3.40;3.10;;;;;;;;;;5034953;28;20181;-85
2021/06/22 06:46:44;;;;;;;4.33;3.00;;;;;;;;;;5034330;28;20188;-85
2021/06/22 06:49:49;;;;;;;7.87;3.40;;;;;;;;;;5023434;28;20196;-84
2021/06/22 06:52:53;;;;;;;5.07;3.90;;;;;;;;;;5004310;28;20220;-85
2021/06/22 06:55:57;;;;;;;4.57;3.07;;;;;;;;;;5017667;28;20170;-85
2021/06/22 06:59:02;;;;;;;6.90;3.73;;;;;;;;;;5017720;28;20182;-85
2021/06/22 07:02:06;;;;;;;5.10;3.40;;;;;;;;;;5005772;28;20692;-85
2021/06/22 07:05:11;;;;;;;4.83;3.20;;;;;;;;;;5004815;28;20205;-85
2021/06/22 07:08:15;;;;;;;3.67;2.60;;;;;;;;;;5027884;28;20182;-85
2021/06/22 07:11:21;;;;;;;13.37;3.47;;;;;;;;;;5004597;28;20216;-85
2021/06/22 07:14:26;;;;;;;3.10;2.67;;;;;;;;;;5005523;28;20190;-84
2021/06/22 07:17:31;;;;;;;7.97;3.63;;;;;;;;;;5036519;28;20180;-86
2021/06/22 07:20:35;;;;;;;9.03;2.67;;;;;;;;;;5025489;28;20181;-85
2021/06/22 07:23:40;;;;;;;6.30;2.77;;;;;;;;;;5025767;28;20173;-86
2021/06/22 07:26:44;;;;;;;5.73;2.70;;;;;;;;;;5014277;28;20204;-85
2021/06/22 07:29:48;;;;;;;5.10;2.30;;;;;;;;;;5036904;28;20177;-86
2021/06/22 07:32:54;;;;;;;6.83;2.70;;;;;;;;;;5024141;28;20216;-85
2021/06/22 07:35:59;;;;;;;3.20;2.10;;;;;;;;;;5022512;28;20197;-85
2021/06/22 07:39:04;;;;;;;3.50;2.17;;;;;;;;;;5022059;28;20184;-85
2021/06/22 07:42:08;;;;;;;2.93;2.00;;;;;;;;;;5011254;28;20692;-85
2021/06/22 07:45:13;;;;;;;6.53;1.97;;;;;;;;;;5033648;28;20200;-85
2021/06/22 07:48:18;;;;;;;4.10;1.50;;;;;;;;;;5018072;28;20201;-85
2021/06/22 07:51:22;;;;;;;4.77;1.47;;;;;;;;;;5033721;28;20215;-85
2021/06/22 07:54:26;;;;;;;4.13;1.70;;;;;;;;;;5033808;28;20637;-85
2021/06/22 07:57:29;;;;;;;3.07;1.80;;;;;;;;;;5022226;28;20518;-85
2021/06/22 08:03:44;;;;;;;2.13;1.70;;;;;;;;;;5034008;28;20182;-85
2021/06/22 08:06:49;;;;;;;2.77;1.80;;;;;;;;;;5011011;28;20214;-86
2021/06/22 08:09:54;;;;;;;2.75;1.52;;;;;;;;;;5022719;28;20182;-86
2021/06/22 08:12:58;;;;;;;1.92;1.58;;;;;;;;;;5021732;28;20221;-85
2021/06/22 08:16:04;;;;;;;3.20;1.75;;;;;;;;;;5019515;28;20534;-85
2021/06/22 08:19:09;;;;;;;3.55;1.85;;;;;;;;;;5013984;28;20201;-86
2021/06/22 08:22:13;;;;;;;3.97;1.70;;;;;;;;;;5002442;28;20233;-86
2021/06/22 08:25:19;;;;;;;5.88;1.80;;;;;;;;;;5017784;28;20209;-85
2021/06/22 08:28:23;;;;;;;3.75;1.50;;;;;;;;;;5006341;28;20193;-86
2021/06/22 08:31:27;;;;;;;4.47;1.80;;;;;;;;;;5005844;28;20216;-86
2021/06/22 08:34:31;;;;;;;5.32;1.52;;;;;;;;;;5017446;28;20189;-86
2021/06/22 08:37:35;;;;;;;6.95;1.70;;;;;;;;;;4994415;28;20200;-85
2021/06/22 08:40:42;;;;;;;4.15;1.65;;;;;;;;;;5005595;28;20203;-86
2021/06/22 08:43:49;;;;;;;6.75;1.83;;;;;;;;;;5017251;28;20506;-85
2021/06/22 08:46:56;;;;;;;4.78;1.40;;;;;;;;;;5005936;28;20540;-85
2021/06/22 08:50:01;;;;;;;4.35;1.85;;;;;;;;;;5006431;28;20179;-85
2021/06/22 08:53:05;;;;;;;4.30;1.58;;;;;;;;;;5017025;28;20218;-85
2021/06/22 08:56:10;;;;;;;3.60;1.35;;;;;;;;;;5016980;28;20204;-85
2021/06/22 08:59:14;;;;;;;3.97;1.30;;;;;;;;;;5033889;28;20185;-85
2021/06/22 09:02:24;;;;;;;3.78;1.40;;;;;;;;;;5024567;28;20218;-85
2021/06/22 09:05:29;;;;;;;3.75;1.73;;;;;;;;;;5013117;28;20220;-85
2021/06/22 09:08:34;;;;;;;4.70;1.73;;;;;;;;;;5037047;28;20191;-85
2021/06/22 09:11:39;;;;;;;4.53;1.80;;;;;;;;;;5005357;28;20227;-85
2021/06/22 09:14:44;;;;;;;3.15;1.27;;;;;;;;;;5005129;28;20184;-85
2021/06/22 09:17:49;;;;;;;4.00;1.20;;;;;;;;;;5022600;28;20182;-85
2021/06/22 09:20:58;;;;;;;4.63;1.15;;;;;;;;;;4999641;28;20540;-85
2021/06/22 09:24:03;;;;;;;5.72;1.45;;;;;;;;;;5024122;28;20204;-85
2021/06/22 09:27:07;;;;;;;1.58;1.30;;;;;;;;;;5070155;22;20288;-73
2021/06/22 09:30:11;;;;;;;3.10;1.30;;;;;;;;;;5035357;28;20197;-73
2021/06/22 09:33:36;;;;;;;4.43;1.20;;;;;;;;;;5031877;28;20205;-73
2021/06/22 09:36:49;;;;;;;2.15;1.25;;;;;;;;;;5015678;28;20664;-73
2021/06/22 09:39:53;;;;;;;5.93;1.42;;;;;;;;;;5034160;28;20181;-73
2021/06/22 09:42:58;;;;;;;3.88;1.35;;;;;;;;;;5036142;28;20181;-73
2021/06/22 09:46:03;;;;;;;5.80;1.10;;;;;;;;;;5032909;28;20208;-73
2021/06/22 09:49:17;;;;;;;3.53;1.33;;;;;;;;;;5016002;28;20186;-73
2021/06/22 09:52:26;;;;;;;1.67;1.05;;;;;;;;;;5026321;28;20198;-73
2021/06/22 09:55:35;;;;;;;3.85;1.50;;;;;;;;;;5033353;28;20197;-73
2021/06/22 09:58:43;;;;;;;5.00;1.58;;;;;;;;;;5012800;28;20206;-74
2021/06/22 10:01:52;;;;;;;11.18;1.90;;;;;;;;;;5034667;28;20196;-74
2021/06/22 10:04:58;;;;;;;8.18;1.70;;;;;;;;;;5027032;28;20197;-74
2021/06/22 10:08:02;;;;;;;3.95;1.33;;;;;;;;;;5022689;28;20215;-74
2021/06/22 10:11:30;;;;;;;3.00;1.63;;;;;;;;;;5023653;28;20207;-73
2021/06/22 10:14:48;;;;;;;3.42;1.55;;;;;;;;;;5024694;28;20627;-72
2021/06/22 10:17:52;;;;;;;5.20;1.83;;;;;;;;;;5022682;28;20217;-74
2021/06/22 10:20:57;;;;;;;3.85;1.73;;;;;;;;;;5024325;28;20202;-73
2021/06/22 10:24:02;;;;;;;3.80;1.60;;;;;;;;;;5015184;28;20201;-73
2021/06/22 10:27:06;;;;;;;2.50;1.60;;;;;;;;;;5015948;28;20221;-73
2021/06/22 10:30:11;;;;;;;3.63;1.42;;;;;;;;;;5024784;28;20198;-72
2021/06/22 10:33:15;;;;;;;5.78;1.70;;;;;;;;;;5030454;28;20197;-73
2021/06/22 10:36:23;;;;;;;3.20;1.50;;;;;;;;;;5033826;28;20174;-74
2021/06/22 10:39:32;;;;;;;4.50;1.40;;;;;;;;;;5023373;28;20205;-73
2021/06/22 10:42:42;;;;;;;3.05;1.65;;;;;;;;;;5034726;28;20197;-73
2021/06/22 10:45:57;;;;;;;2.58;1.60;;;;;;;;;;5019680;28;20196;-73
2021/06/22 10:49:17;;;;;;;1.27;1.10;;;;;;;;;;5017341;28;20185;-73
2021/06/22 10:52:44;;;;;;;3.85;1.70;;;;;;;;;;5014805;28;20192;-73
2021/06/22 10:55:55;;;;;;;2.95;1.52;;;;;;;;;;5014700;28;20186;-73
2021/06/22 10:59:11;;;;;;;4.15;1.60;;;;;;;;;;5017268;28;20658;-74
2021/06/22 11:02:15;;;;;;;2.63;1.50;;;;;;;;;;5014698;28;20193;-74
2021/06/22 11:05:19;;;;;;;4.03;1.70;;;;;;;;;;5016946;28;20189;-73
2021/06/22 11:08:31;;;;;;;2.33;1.58;;;;;;;;;;5033739;28;20219;-73
2021/06/22 11:11:36;;;;;;;3.38;1.60;;;;;;;;;;5034163;28;20196;-73
2021/06/22 11:14:58;;;;;;;3.85;1.88;;;;;;;;;;5017351;28;20197;-74
2021/06/22 11:18:02;;;;;;;4.70;1.80;;;;;;;;;;5014061;28;20687;-73
2021/06/22 11:21:07;;;;;;;4.82;1.70;;;;;;;;;;5013525;28;20182;-74
2021/06/22 11:24:14;;;;;;;3.17;1.60;;;;;;;;;;5014559;28;20648;-73
2021/06/22 11:27:18;;;;;;;3.05;1.85;;;;;;;;;;5014014;28;20229;-74
2021/06/22 11:30:48;;;;;;;2.28;1.73;;;;;;;;;;5013889;28;20197;-73
2021/06/22 11:34:12;;;;;;;5.80;1.80;;;;;;;;;;5014353;28;20186;-74
2021/06/22 11:37:22;;;;;;;2.97;1.63;;;;;;;;;;5029070;28;20724;-73
2021/06/22 11:40:26;;;;;;;4.63;2.00;;;;;;;;;;5017965;28;20673;-73
2021/06/22 11:43:31;;;;;;;3.25;2.00;;;;;;;;;;5013179;28;20181;-73
2021/06/22 11:46:43;;;;;;;3.30;2.17;;;;;;;;;;5024693;28;20224;-73
2021/06/22 11:49:49;;;;;;;2.67;1.77;;;;;;;;;;5013211;28;20202;-74
2021/06/22 11:52:59;;;;;;;3.75;2.10;;;;;;;;;;5014108;28;20185;-73
2021/06/22 11:56:13;;;;;;;2.95;1.80;;;;;;;;;;5016038;28;20539;-73
2021/06/22 11:59:19;;;;;;;13.93;2.67;;;;;;;;;;5016786;28;20196;-73
2021/06/22 12:02:23;;;;;;;15.82;2.58;;;;;;;;;;5026813;28;20212;-74
2021/06/22 12:05:29;;;;;;;3.20;2.15;;;;;;;;;;5013640;28;20211;-73
2021/06/22 12:08:34;;;;;;;11.68;2.10;;;;;;;;;;5020604;28;20556;-73
2021/06/22 12:11:43;;;;;;;2.75;2.03;;;;;;;;;;5019401;28;20200;-74
2021/06/22 12:14:52;;;;;;;6.13;1.90;;;;;;;;;;5032491;28;20184;-73
2021/06/22 12:17:57;;;;;;;6.80;2.08;;;;;;;;;;5016005;28;20568;-73
2021/06/22 12:21:03;;;;;;;5.03;1.98;;;;;;;;;;5024787;28;20193;-73
2021/06/22 12:24:11;;;;;;;6.03;1.90;;;;;;;;;;5011185;28;20198;-74
2021/06/22 12:27:16;;;;;;;3.22;2.13;;;;;;;;;;5029422;28;20711;-73
2021/06/22 12:30:31;;;;;;;3.05;1.83;;;;;;;;;;5025490;28;20201;-74
2021/06/22 12:33:40;;;;;;;3.10;2.13;;;;;;;;;;5015337;28;20186;-75
2021/06/22 12:36:45;;;;;;;3.75;1.50;;;;;;;;;;5033280;28;20687;-73
2021/06/22 12:39:49;;;;;;;4.72;1.75;;;;;;;;;;5017921;28;20186;-74
2021/06/22 12:42:54;;;;;;;3.55;1.80;;;;;;;;;;5019546;28;20643;-74
2021/06/22 12:46:02;;;;;;;5.07;2.03;;;;;;;;;;5023222;28;20182;-73
2021/06/22 12:49:10;;;;;;;5.35;1.80;;;;;;;;;;5012389;28;20174;-73
2021/06/22 12:52:16;;;;;;;6.00;2.10;;;;;;;;;;5029639;28;20538;-74
2021/06/22 12:56:04;;;;;;;4.32;1.80;;;;;;;;;;5031466;28;20671;-74
2021/06/22 12:59:08;;;;;;;4.07;2.20;;;;;;;;;;5022049;28;20647;-74
2021/06/22 13:02:14;;;;;;;3.90;2.17;;;;;;;;;;5027310;28;20544;-74
2021/06/22 13:05:31;;;;;;;3.58;1.90;;;;;;;;;;5028521;28;20196;-73
2021/06/22 13:08:36;;;;;;;4.15;1.67;;;;;;;;;;5021107;28;20228;-74
2021/06/22 13:11:51;;;;;;;4.03;1.90;;;;;;;;;;5023384;28;20208;-75
2021/06/22 13:14:56;;;;;;;6.18;2.22;;;;;;;;;;5031877;28;20203;-74
2021/06/22 13:18:00;;;;;;;4.65;1.63;;;;;;;;;;5032951;28;20222;-75
2021/06/22 13:21:11;;;;;;;3.45;1.73;;;;;;;;;;5016021;28;20185;-73
2021/06/22 13:24:31;;;;;;;3.85;1.58;;;;;;;;;;5016191;28;20205;-74
2021/06/22 13:27:37;;;;;;;4.28;1.95;;;;;;;;;;5027465;28;20228;-74
2021/06/22 13:30:49;;;;;;;3.83;1.70;;;;;;;;;;5022717;28;20622;-74
2021/06/22 13:34:03;;;;;;;4.75;2.35;;;;;;;;;;5016562;28;20194;-74
2021/06/22 13:37:07;;;;;;;4.97;1.67;;;;;;;;;;5016279;28;20217;-73
2021/06/22 13:40:11;;;;;;;7.30;1.70;;;;;;;;;;5015911;28;20184;-74
2021/06/22 13:43:21;;;;;;;4.97;2.00;;;;;;;;;;5015868;28;20181;-74
2021/06/22 13:46:27;;;;;;;3.85;1.60;;;;;;;;;;5015716;28;20502;-74
2021/06/22 13:49:39;;;;;;;4.70;1.77;;;;;;;;;;5015215;28;20173;-74
2021/06/22 13:52:46;;;;;;;4.10;1.70;;;;;;;;;;5023725;28;20193;-74
2021/06/22 13:55:51;;;;;;;3.60;1.60;;;;;;;;;;5035475;28;20189;-74
2021/06/22 13:58:55;;;;;;;4.80;1.38;;;;;;;;;;5025218;28;20197;-75
2021/06/22 14:01:59;;;;;;;3.50;1.65;;;;;;;;;;5025765;28;20192;-73
2021/06/22 14:05:05;;;;;;;3.58;1.60;;;;;;;;;;5034950;28;20205;-74
2021/06/22 14:08:10;;;;;;;10.82;2.30;;;;;;;;;;5033620;28;20212;-74
2021/06/22 14:11:14;;;;;;;4.13;1.58;;;;;;;;;;5026313;28;20197;-74
2021/06/22 14:14:18;;;;;;;4.85;1.80;;;;;;;;;;5023776;28;20197;-74
2021/06/22 14:17:22;;;;;;;3.40;1.77;;;;;;;;;;5015658;28;20558;-74
2021/06/22 14:20:28;;;;;;;7.30;2.00;;;;;;;;;;5032812;28;20182;-74
2021/06/22 14:23:32;;;;;;;7.22;2.20;;;;;;;;;;5016091;28;20187;-74
2021/06/22 14:26:36;;;;;;;4.57;1.50;;;;;;;;;;5033672;28;20222;-75
2021/06/22 14:29:40;;;;;;;2.45;1.73;;;;;;;;;;5014173;28;20205;-75
2021/06/22 14:32:47;;;;;;;9.50;1.63;;;;;;;;;;5015223;28;20192;-73
2021/06/22 14:35:54;;;;;;;5.28;1.58;;;;;;;;;;5029195;28;20192;-74
2021/06/22 14:38:58;;;;;;;4.82;1.90;;;;;;;;;;5025723;28;20192;-73
2021/06/22 14:42:02;;;;;;;5.82;1.80;;;;;;;;;;5034502;28;20183;-74
2021/06/22 14:45:09;;;;;;;5.82;1.40;;;;;;;;;;5034703;28;20175;-73
2021/06/22 14:48:13;;;;;;;6.20;1.80;;;;;;;;;;5028799;28;20225;-74
2021/06/22 14:51:17;;;;;;;12.07;1.95;;;;;;;;;;5018267;28;20186;-74
2021/06/22 14:54:21;;;;;;;4.70;1.30;;;;;;;;;;5026207;28;20197;-74
2021/06/22 14:57:26;;;;;;;4.07;1.52;;;;;;;;;;5031839;28;20560;-75
2021/06/22 15:00:31;;;;;;;3.95;1.88;;;;;;;;;;5028332;28;20195;-74
2021/06/22 15:03:35;;;;;;;6.03;1.55;;;;;;;;;;5026544;28;20196;-74
2021/06/22 15:06:40;;;;;;;3.72;1.85;;;;;;;;;;5034442;28;20554;-74
2021/06/22 15:09:44;;;;;;;8.48;1.92;;;;;;;;;;5033272;28;20189;-74
2021/06/22 15:12:48;;;;;;;3.70;1.92;;;;;;;;;;5034535;28;20178;-74
2021/06/22 15:15:52;;;;;;;5.28;2.03;;;;;;;;;;5025756;28;20197;-74
2021/06/22 15:18:56;;;;;;;5.53;1.90;;;;;;;;;;5014157;28;20185;-74
2021/06/22 15:22:01;;;;;;;5.78;2.05;;;;;;;;;;5023097;28;20606;-74
2021/06/22 15:25:10;;;;;;;6.25;1.88;;;;;;;;;;5015275;28;20204;-73
2021/06/22 15:28:17;;;;;;;6.00;2.08;;;;;;;;;;5029729;22;20230;-87
2021/06/22 15:31:21;;;;;;;6.93;2.03;;;;;;;;;;5011477;28;20214;-84
2021/06/22 15:34:26;;;;;;;5.33;2.33;;;;;;;;;;4987506;28;20194;-85
2021/06/22 15:37:30;;;;;;;4.03;2.10;;;;;;;;;;5007234;28;20221;-85
2021/06/22 15:40:36;;;;;;;3.85;2.08;;;;;;;;;;4998616;28;20643;-85
2021/06/22 15:43:40;;;;;;;4.23;2.20;;;;;;;;;;4992354;28;20177;-83
2021/06/22 15:46:45;;;;;;;7.13;3.40;;;;;;;;;;5007874;28;20186;-84
2021/06/22 15:49:49;;;;;;;15.73;3.10;;;;;;;;;;4998380;28;20187;-84
2021/06/22 15:52:53;;;;;;;4.37;2.60;;;;;;;;;;4990402;28;20182;-84
2021/06/22 15:55:57;;;;;;;10.00;3.43;;;;;;;;;;4986886;28;20194;-85
2021/06/22 15:59:01;;;;;;;5.67;3.10;;;;;;;;;;5010802;28;20223;-84
2021/06/22 16:02:05;;;;;;;7.20;3.33;;;;;;;;;;4998782;28;20195;-84
2021/06/22 16:05:11;;;;;;;6.50;3.07;;;;;;;;;;4980444;28;20433;-85
2021/06/22 16:08:16;;;;;;;8.33;3.40;;;;;;;;;;4975932;28;20227;-85
2021/06/22 16:11:20;;;;;;;5.40;3.20;;;;;;;;;;4990685;28;20759;-85
2021/06/22 16:14:24;;;;;;;4.67;3.57;;;;;;;;;;4990507;28;20194;-85
2021/06/22 16:17:29;;;;;;;6.77;3.30;;;;;;;;;;4982897;28;20222;-85
2021/06/22 16:20:33;;;;;;;6.70;3.70;;;;;;;;;;4983879;28;20179;-85
2021/06/22 16:23:38;;;;;;;5.40;4.10;;;;;;;;;;4991627;28;20650;-84
2021/06/22 16:26:43;;;;;;;5.67;3.60;;;;;;;;;;4990732;28;20195;-85
2021/06/22 16:29:46;;;;;;;7.53;3.70;;;;;;;;;;5001915;28;20533;-83
2021/06/22 16:32:51;;;;;;;7.40;4.07;;;;;;;;;;4993872;28;20182;-83
2021/06/22 16:35:55;;;;;;;6.47;4.30;;;;;;;;;;4982437;28;20183;-82
2021/06/22 16:38:59;;;;;;;5.90;3.80;;;;;;;;;;4982041;28;20215;-83
2021/06/22 16:42:04;;;;;;;5.60;3.93;;;;;;;;;;4993898;28;20179;-83
2021/06/22 16:45:10;;;;;;;8.47;4.27;;;;;;;;;;4985287;28;20182;-83
2021/06/22 16:48:15;;;;;;;8.57;4.07;;;;;;;;;;4997480;28;20227;-84
2021/06/22 16:51:19;;;;;;;10.17;4.10;;;;;;;;;;5009303;28;20192;-83
2021/06/22 16:54:23;;;;;;;8.17;4.00;;;;;;;;;;4986274;28;20195;-83
2021/06/22 16:57:28;;;;;;;6.67;4.30;;;;;;;;;;5008687;28;20559;-83
2021/06/22 17:00:37;;;;;;;8.27;4.30;;;;;;;;;;4975482;28;20182;-83
2021/06/22 17:03:41;;;;;;;6.90;4.40;;;;;;;;;;5001503;28;20662;-83
2021/06/22 17:06:45;;;;;;;12.77;4.67;;;;;;;;;;5017039;28;20621;-83
2021/06/22 17:09:49;;;;;;;6.03;4.40;;;;;;;;;;5006024;28;20202;-82
2021/06/22 17:12:57;;;;;;;5.40;4.63;;;;;;;;;;5005682;28;20186;-83
2021/06/22 17:16:03;;;;;;;5.40;4.57;;;;;;;;;;5028825;28;20185;-83
2021/06/22 17:19:07;;;;;;;7.03;4.70;;;;;;;;;;5018225;28;20628;-82
2021/06/22 17:22:11;;;;;;;8.00;5.50;;;;;;;;;;5005916;28;20173;-83
2021/06/22 17:25:18;;;;;;;8.23;4.83;;;;;;;;;;5005374;28;20178;-83
2021/06/22 17:28:24;;;;;;;5.17;4.60;;;;;;;;;;5016433;28;20572;-83
2021/06/22 17:31:28;;;;;;;6.97;4.70;;;;;;;;;;5005153;28;20186;-83
2021/06/22 17:34:34;;;;;;;7.07;4.80;;;;;;;;;;5004810;28;20201;-82
2021/06/22 17:37:38;;;;;;;7.27;5.03;;;;;;;;;;5016345;28;20214;-83
2021/06/22 17:40:45;;;;;;;6.97;4.93;;;;;;;;;;5005117;28;20182;-83
2021/06/22 17:43:50;;;;;;;9.90;4.77;;;;;;;;;;5015785;28;20177;-82
2021/06/22 17:46:54;;;;;;;6.47;5.37;;;;;;;;;;5004204;28;20201;-82
2021/06/22 17:49:58;;;;;;;6.27;4.43;;;;;;;;;;5004896;28;20201;-82
2021/06/22 17:53:04;;;;;;;5.00;4.60;;;;;;;;;;5004207;28;20201;-83
2021/06/22 17:56:09;;;;;;;6.70;4.67;;;;;;;;;;5004126;28;20223;-82
2021/06/22 17:59:13;;;;;;;6.17;4.50;;;;;;;;;;5004588;28;20190;-82
2021/06/22 18:02:18;;;;;;;5.87;4.90;;;;;;;;;;5003768;28;20186;-82
2021/06/22 18:05:23;;;;;;;7.13;4.90;;;;;;;;;;5004047;28;20178;-82
2021/06/22 18:08:27;;;;;;;7.53;5.37;;;;;;;;;;5015532;28;20220;-82
2021/06/22 18:11:32;;;;;;;5.40;4.50;;;;;;;;;;5015157;28;20640;-82
2021/06/22 18:14:36;;;;;;;9.40;4.53;;;;;;;;;;5015507;28;20178;-82
2021/06/22 18:17:40;;;;;;;6.20;4.70;;;;;;;;;;5003972;28;20217;-82
2021/06/22 18:20:45;;;;;;;6.77;4.70;;;;;;;;;;4984206;28;20182;-82
2021/06/22 18:23:51;;;;;;;10.47;4.27;;;;;;;;;;4984609;28;20178;-83
2021/06/22 18:26:55;;;;;;;7.07;4.10;;;;;;;;;;4995116;28;20534;-82
2021/06/22 18:29:59;;;;;;;10.37;5.10;;;;;;;;;;4984151;28;20668;-82
2021/06/22 18:33:04;;;;;;;9.03;4.77;;;;;;;;;;4973458;28;20190;-83
2021/06/22 18:36:08;;;;;;;5.40;4.90;;;;;;;;;;4984686;28;20178;-82
2021/06/22 18:39:12;;;;;;;5.60;4.73;;;;;;;;;;4984594;28;20174;-82
2021/06/22 18:42:16;;;;;;;5.57;4.50;;;;;;;;;;5006797;28;20545;-83